Time;durP1;ratioP1;P1;durP2;ratioP2;P2;SDS_P1;SDS_P2;PMS_P1;PMS_P2;Temp;Humidity;BMP_temperature;BMP_pressure;BME280_temperature;BME280_humidity;BME280_pressure;Samples;Min_cycle;Max_cycle;Signal;HPM_P1;HPM_P2
2022/04/11 00:01:10;;;;;;;17.77;8.68;;;;;;;4.70;61.54;101922.03;5032601;28;20037;-79
2022/04/11 00:03:36;;;;;;;16.27;7.57;;;;;;;4.68;62.13;101910.59;5032654;28;20033;-79
2022/04/11 00:06:02;;;;;;;12.30;7.00;;;;;;;4.66;61.36;101907.94;5036894;28;20045;-79
2022/04/11 00:08:27;;;;;;;14.50;7.22;;;;;;;4.63;61.99;101907.00;5031014;28;20167;-79
2022/04/11 00:10:53;;;;;;;15.43;6.63;;;;;;;4.61;61.97;101906.97;5034562;28;20029;-79
2022/04/11 00:13:18;;;;;;;12.60;6.53;;;;;;;4.58;61.32;101901.66;5052502;28;20037;-79
2022/04/11 00:15:44;;;;;;;12.57;6.53;;;;;;;4.58;61.65;101896.44;5053059;28;20433;-79
2022/04/11 00:18:09;;;;;;;9.77;6.40;;;;;;;4.57;61.84;101907.75;5037114;28;20562;-79
2022/04/11 00:20:36;;;;;;;10.85;6.53;;;;;;;4.57;61.82;101893.75;5031499;28;20483;-79
2022/04/11 00:23:04;;;;;;;9.40;5.75;;;;;;;4.53;61.72;101898.06;5036793;28;20357;-79
2022/04/11 00:25:29;;;;;;;10.77;6.38;;;;;;;4.52;61.99;101893.66;5052602;28;20045;-79
2022/04/11 00:27:55;;;;;;;10.07;6.45;;;;;;;4.51;62.19;101898.03;5052512;28;20051;-79
2022/04/11 00:30:21;;;;;;;10.93;7.10;;;;;;;4.50;62.32;101882.25;5026976;28;20106;-79
2022/04/11 00:32:47;;;;;;;12.05;6.30;;;;;;;4.50;62.48;101893.66;5031242;28;20037;-79
2022/04/11 00:35:13;;;;;;;18.20;7.18;;;;;;;4.50;62.97;101884.88;5039681;28;20500;-79
2022/04/11 00:37:40;;;;;;;8.43;5.88;;;;;;;4.50;62.10;101879.63;5030969;28;20083;-79
2022/04/11 00:40:08;;;;;;;14.88;6.80;;;;;;;4.48;62.83;101871.75;5030929;28;20030;-79
2022/04/11 00:42:34;;;;;;;13.35;7.22;;;;;;;4.46;62.87;101870.84;5030895;28;20029;-79
2022/04/11 00:45:00;;;;;;;14.13;7.15;;;;;;;4.47;62.33;101872.59;5032440;28;20049;-79
2022/04/11 00:47:27;;;;;;;13.07;7.28;;;;;;;4.47;62.27;101866.47;5032221;28;20106;-79
2022/04/11 00:50:03;;;;;;;12.32;7.55;;;;;;;4.46;62.53;101868.22;5033897;28;20136;-79
2022/04/11 00:52:31;;;;;;;9.95;7.25;;;;;;;4.47;62.81;101856.84;5030180;28;20029;-79
2022/04/11 00:54:58;;;;;;;11.20;7.10;;;;;;;4.47;63.04;101862.09;5014602;28;20029;-79
2022/04/11 00:57:24;;;;;;;15.77;7.15;;;;;;;4.47;62.71;101861.22;5013466;28;20119;-79
2022/04/11 00:59:50;;;;;;;13.27;7.15;;;;;;;4.46;62.66;101856.84;5030592;28;20124;-79
2022/04/11 01:02:16;;;;;;;11.63;7.82;;;;;;;4.45;62.53;101855.97;5031777;28;20029;-79
2022/04/11 01:04:41;;;;;;;9.93;7.47;;;;;;;4.47;62.52;101853.34;5018943;28;20036;-79
2022/04/11 01:07:08;;;;;;;13.63;6.80;;;;;;;4.48;62.37;101852.50;5030296;28;20041;-79
2022/04/11 01:09:34;;;;;;;11.32;7.22;;;;;;;4.45;62.79;101850.72;5030501;28;20044;-79
2022/04/11 01:12:01;;;;;;;10.73;7.22;;;;;;;4.48;62.82;101847.28;5014796;28;20025;-79
2022/04/11 01:14:26;;;;;;;12.63;7.47;;;;;;;4.50;62.39;101848.16;5030411;28;20457;-79
2022/04/11 01:16:53;;;;;;;11.07;7.57;;;;;;;4.50;62.45;101853.41;5030517;28;20032;-79
2022/04/11 01:19:20;;;;;;;13.40;6.90;;;;;;;4.49;61.97;101852.53;5030173;28;20035;-79
2022/04/11 01:21:49;;;;;;;10.85;7.55;;;;;;;4.48;63.08;101850.75;5030657;28;20029;-79
2022/04/11 01:24:19;;;;;;;12.32;7.90;;;;;;;4.46;62.72;101849.84;5030862;28;20033;-79
2022/04/11 01:26:46;;;;;;;12.05;7.15;;;;;;;4.47;62.61;101848.97;5029995;28;20037;-79
2022/04/11 01:29:12;;;;;;;11.80;8.05;;;;;;;4.49;62.75;101844.66;5021268;28;20346;-79
2022/04/11 01:31:38;;;;;;;12.35;7.65;;;;;;;4.47;62.85;101843.72;5032818;28;20047;-79
2022/04/11 01:34:04;;;;;;;10.43;7.40;;;;;;;4.49;62.29;101847.28;5015447;28;20485;-79
2022/04/11 01:36:30;;;;;;;13.90;7.82;;;;;;;4.48;62.40;101849.88;5030852;28;20038;-79
2022/04/11 01:38:57;;;;;;;10.85;7.68;;;;;;;4.46;63.38;101844.59;5029939;28;20401;-79
2022/04/11 01:41:23;;;;;;;11.52;7.43;;;;;;;4.46;62.52;101855.09;5014429;28;20033;-79
2022/04/11 01:43:48;;;;;;;11.30;7.50;;;;;;;4.46;63.38;101849.84;5030204;28;20103;-79
2022/04/11 01:46:15;;;;;;;14.95;7.72;;;;;;;4.45;63.43;101847.19;5030659;28;20507;-79
2022/04/11 01:48:43;;;;;;;13.98;7.00;;;;;;;4.43;63.10;101849.78;5030131;28;20927;-79
2022/04/11 01:51:10;;;;;;;11.18;7.75;;;;;;;4.43;62.99;101851.53;5031777;28;20140;-79
2022/04/11 01:53:36;;;;;;;9.70;7.57;;;;;;;4.42;63.14;101842.75;5031448;28;20057;-79
2022/04/11 01:56:02;;;;;;;12.48;7.25;;;;;;;4.40;63.31;101838.34;5030155;28;20466;-79
2022/04/11 01:58:29;;;;;;;11.52;8.15;;;;;;;4.41;63.32;101840.13;5014018;28;20029;-79
2022/04/11 02:00:58;;;;;;;10.63;7.53;;;;;;;4.40;63.25;101828.75;5013672;28;20095;-79
2022/04/11 02:03:24;;;;;;;11.23;7.50;;;;;;;4.39;63.61;101833.97;5030153;28;20033;-79
2022/04/11 02:05:50;;;;;;;12.88;7.75;;;;;;;4.37;63.38;101839.16;5018835;28;20029;-79
2022/04/11 02:08:16;;;;;;;14.18;7.82;;;;;;;4.36;63.87;101836.53;5035754;28;20037;-79
2022/04/11 02:10:42;;;;;;;11.50;7.88;;;;;;;4.34;63.07;101839.13;5030080;28;20022;-79
2022/04/11 02:13:09;;;;;;;14.88;7.88;;;;;;;4.32;63.82;101843.44;5033355;28;20037;-79
2022/04/11 02:15:36;;;;;;;10.75;7.65;;;;;;;4.30;63.56;101839.91;5050184;28;20037;-79
2022/04/11 02:18:03;;;;;;;11.55;7.78;;;;;;;4.27;63.47;101839.84;5049531;28;20145;-79
2022/04/11 02:20:28;;;;;;;10.40;7.75;;;;;;;4.23;63.72;101833.66;5049601;28;20033;-79
2022/04/11 02:22:55;;;;;;;9.73;7.40;;;;;;;4.21;63.92;101834.50;5049048;28;20043;-79
2022/04/11 02:25:24;;;;;;;12.15;8.50;;;;;;;4.19;64.05;101836.19;5030329;28;20390;-79
2022/04/11 02:27:51;;;;;;;9.73;7.38;;;;;;;4.15;63.82;101836.97;5029728;28;20096;-79
2022/04/11 02:30:18;;;;;;;11.82;7.72;;;;;;;4.12;64.14;101839.53;5018321;28;20033;-79
2022/04/11 02:32:44;;;;;;;15.07;8.85;;;;;;;4.05;63.99;101839.41;5029649;28;20037;-79
2022/04/11 02:35:11;;;;;;;13.95;7.82;;;;;;;4.05;64.16;101843.75;4997148;28;20099;-78
2022/04/11 02:37:37;;;;;;;12.82;7.40;;;;;;;3.99;64.18;101839.28;5012995;28;20504;-79
2022/04/11 02:40:04;;;;;;;12.32;8.13;;;;;;;3.98;64.10;101839.25;5029658;28;20025;-79
2022/04/11 02:42:33;;;;;;;18.38;7.82;;;;;;;3.94;63.94;101838.31;5030885;28;20033;-79
2022/04/11 02:45:06;;;;;;;17.58;7.85;;;;;;;3.88;64.87;101836.44;5029203;28;20049;-79
2022/04/11 02:47:32;;;;;;;13.77;8.10;;;;;;;3.83;64.82;101829.31;5029404;28;20140;-79
2022/04/11 02:49:58;;;;;;;14.77;8.75;;;;;;;3.79;65.10;101840.59;4997095;28;20068;-79
2022/04/11 02:52:45;;;;;;;11.60;8.10;;;;;;;3.74;65.23;101834.38;5029548;28;20048;-79
2022/04/11 02:55:11;;;;;;;16.38;8.30;;;;;;;3.69;65.67;101830.78;5029610;28;20135;-78
2022/04/11 02:57:38;;;;;;;13.60;8.45;;;;;;;3.64;66.09;101833.28;5012752;28;20418;-78
2022/04/11 03:00:11;;;;;;;11.68;8.40;;;;;;;3.60;65.44;101837.56;5029375;28;20041;-78
2022/04/11 03:02:40;;;;;;;11.15;7.82;;;;;;;3.57;65.34;101828.75;5029296;28;20045;-78
2022/04/11 03:05:07;;;;;;;14.05;8.80;;;;;;;3.51;65.62;101823.34;5031299;28;20114;-78
2022/04/11 03:07:34;;;;;;;11.88;7.47;;;;;;;3.47;65.02;101826.78;5037648;28;20178;-78
2022/04/11 03:10:00;;;;;;;12.93;8.40;;;;;;;3.43;66.32;101829.31;5048712;28;20116;-78
2022/04/11 03:12:26;;;;;;;10.95;8.80;;;;;;;3.39;65.77;101827.47;5033249;28;20041;-78
2022/04/11 03:14:51;;;;;;;13.05;8.45;;;;;;;3.38;65.87;101816.97;5030464;28;20477;-79
2022/04/11 03:17:18;;;;;;;10.40;8.55;;;;;;;3.34;66.21;101823.88;5029142;28;20133;-79
2022/04/11 03:19:44;;;;;;;11.82;8.30;;;;;;;3.30;66.27;101829.00;5012772;28;20124;-79
2022/04/11 03:22:11;;;;;;;12.30;8.95;;;;;;;3.26;66.34;101820.16;5032843;28;20546;-79
2022/04/11 03:24:40;;;;;;;13.88;9.10;;;;;;;3.21;66.58;101819.19;5048203;28;20037;-79
2022/04/11 03:27:06;;;;;;;11.82;8.68;;;;;;;3.15;67.14;101816.44;5036241;28;20097;-79
2022/04/11 03:29:34;;;;;;;13.65;8.50;;;;;;;3.08;67.21;101823.22;5050240;28;20055;-79
2022/04/11 03:32:00;;;;;;;12.98;8.75;;;;;;;3.01;66.96;101830.03;5033072;28;20038;-79
2022/04/11 03:34:29;;;;;;;19.95;8.40;;;;;;;2.96;67.32;101825.56;5032911;28;20037;-79
2022/04/11 03:36:54;;;;;;;16.23;9.00;;;;;;;2.92;68.27;101831.56;5016496;28;20049;-79
2022/04/11 03:39:21;;;;;;;12.05;8.43;;;;;;;2.86;67.43;101826.16;5016441;28;20121;-79
2022/04/11 03:41:49;;;;;;;10.35;7.15;;;;;;;2.83;67.02;101826.97;5016405;28;20408;-79
2022/04/11 03:44:19;;;;;;;15.80;9.20;;;;;;;2.79;67.70;101832.97;5016873;28;20064;-79
2022/04/11 03:46:47;;;;;;;17.10;8.20;;;;;;;2.77;68.12;101832.94;5016497;28;20295;-78
2022/04/11 03:49:18;;;;;;;12.73;8.67;;;;;;;2.72;68.44;101833.66;5032509;28;20135;-78
2022/04/11 03:51:44;;;;;;;11.27;8.32;;;;;;;2.70;69.32;101833.63;5032642;28;20287;-78
2022/04/11 03:54:10;;;;;;;10.30;7.72;;;;;;;2.68;68.79;101832.69;5016027;28;20490;-78
2022/04/11 03:56:37;;;;;;;11.27;7.97;;;;;;;2.64;68.37;101833.44;5032479;28;20446;-78
2022/04/11 03:59:04;;;;;;;12.90;8.95;;;;;;;2.59;68.38;101833.31;5032122;28;20037;-79
2022/04/11 04:01:32;;;;;;;10.65;8.68;;;;;;;2.57;68.74;101831.50;5016162;28;20049;-78
2022/04/11 04:03:58;;;;;;;12.05;8.48;;;;;;;2.56;68.17;101835.84;5015868;28;20043;-78
2022/04/11 04:06:24;;;;;;;13.00;8.27;;;;;;;2.54;69.25;101827.09;5036913;28;20037;-78
2022/04/11 04:08:50;;;;;;;11.20;7.90;;;;;;;2.53;69.17;101834.91;5048923;28;20125;-78
2022/04/11 04:11:25;;;;;;;16.98;9.32;;;;;;;2.50;68.45;101832.22;5034049;28;20441;-78
2022/04/11 04:14:05;;;;;;;14.98;9.35;;;;;;;2.50;68.94;101827.88;5022461;28;20040;-78
2022/04/11 04:16:33;;;;;;;10.98;8.63;;;;;;;2.48;68.63;101823.44;5051735;28;20112;-78
2022/04/11 04:19:04;;;;;;;11.93;8.88;;;;;;;2.46;68.42;101826.00;5051574;28;20037;-78
2022/04/11 04:21:29;;;;;;;12.63;9.02;;;;;;;2.42;69.81;101823.25;5034907;28;20033;-78
2022/04/11 04:23:55;;;;;;;13.70;9.02;;;;;;;2.39;68.98;101823.19;5034786;28;20033;-78
2022/04/11 04:26:24;;;;;;;14.48;9.25;;;;;;;2.34;69.16;101816.09;5051798;28;20037;-78
2022/04/11 04:28:50;;;;;;;13.93;9.45;;;;;;;2.29;68.92;101808.97;5034767;28;20108;-78
2022/04/11 04:31:17;;;;;;;15.52;9.68;;;;;;;2.29;70.28;101815.09;5051014;28;20041;-78
2022/04/11 04:33:43;;;;;;;13.10;9.35;;;;;;;2.27;70.17;101806.31;5051743;28;20069;-78
2022/04/11 04:36:11;;;;;;;15.20;9.07;;;;;;;2.26;69.80;101807.16;5017466;28;20040;-78
2022/04/11 04:38:37;;;;;;;14.20;9.43;;;;;;;2.23;69.69;101809.69;5033750;28;20044;-78
2022/04/11 04:41:03;;;;;;;13.50;9.57;;;;;;;2.21;69.93;101811.38;5034606;28;20044;-78
2022/04/11 04:43:29;;;;;;;16.25;9.23;;;;;;;2.22;70.81;101807.03;5018004;28;20040;-78
2022/04/11 04:45:57;;;;;;;15.45;9.27;;;;;;;2.22;70.88;101809.66;5051222;28;20061;-78
2022/04/11 04:48:34;;;;;;;13.40;9.20;;;;;;;2.22;69.98;101813.13;5036736;28;20123;-78
2022/04/11 04:51:00;;;;;;;12.18;8.38;;;;;;;2.22;70.13;101810.53;5035002;28;20548;-78
2022/04/11 04:53:27;;;;;;;13.00;9.07;;;;;;;2.22;70.20;101809.66;5034729;28;20079;-78
2022/04/11 04:55:55;;;;;;;12.10;8.80;;;;;;;2.21;70.53;101805.28;5038078;28;20037;-78
2022/04/11 04:58:21;;;;;;;16.80;9.68;;;;;;;2.21;70.92;101811.38;5014736;28;20129;-82
2022/04/11 05:00:48;;;;;;;12.23;8.18;;;;;;;2.19;70.10;101809.56;5026799;28;20044;-81
2022/04/11 05:03:18;;;;;;;14.80;9.02;;;;;;;2.19;70.02;101805.22;5035074;28;20159;-82
2022/04/11 05:05:43;;;;;;;18.77;9.23;;;;;;;2.17;70.66;101812.13;5045678;28;20041;-82
2022/04/11 05:08:10;;;;;;;15.50;8.93;;;;;;;2.14;70.36;101801.59;5045878;28;20028;-82
2022/04/11 05:10:38;;;;;;;12.15;8.93;;;;;;;2.13;70.34;101805.06;5046033;28;20017;-81
2022/04/11 05:13:04;;;;;;;16.48;9.07;;;;;;;2.11;71.40;101799.78;5043646;28;20041;-82
2022/04/11 05:15:30;;;;;;;11.27;8.77;;;;;;;2.11;70.49;101802.41;5041387;28;20511;-82
2022/04/11 05:18:04;;;;;;;15.57;9.80;;;;;;;2.11;71.54;101812.84;5031510;28;20400;-83
2022/04/11 05:20:30;;;;;;;17.88;9.20;;;;;;;2.11;70.96;101807.63;5030753;28;20045;-82
2022/04/11 05:22:57;;;;;;;14.13;8.80;;;;;;;2.14;71.25;101809.44;5046226;28;20063;-82
2022/04/11 05:25:26;;;;;;;17.85;9.75;;;;;;;2.16;71.24;101799.91;5015183;28;20063;-82
2022/04/11 05:27:53;;;;;;;15.60;9.48;;;;;;;2.17;71.31;101800.78;5046450;28;20106;-82
2022/04/11 05:30:19;;;;;;;14.23;9.77;;;;;;;2.20;71.46;101800.88;5030207;28;20437;-82
2022/04/11 05:32:45;;;;;;;14.48;9.75;;;;;;;2.22;71.92;101800.06;5046708;28;20066;-82
2022/04/11 05:35:11;;;;;;;21.95;9.80;;;;;;;2.26;71.14;101806.28;5046760;28;20440;-82
2022/04/11 05:37:38;;;;;;;15.23;9.27;;;;;;;2.31;71.60;101805.56;5026629;28;20076;-82
2022/04/11 05:40:08;;;;;;;18.60;8.90;;;;;;;2.36;71.27;101806.56;5030390;28;20043;-82
2022/04/11 05:42:37;;;;;;;18.90;10.35;;;;;;;2.45;71.42;101805.94;5013667;28;20033;-82
2022/04/11 05:45:06;;;;;;;17.33;9.70;;;;;;;2.50;71.45;101812.19;5035224;28;20045;-82
2022/04/11 05:47:32;;;;;;;21.77;10.18;;;;;;;2.57;72.18;101805.34;5046754;28;20064;-82
2022/04/11 05:49:59;;;;;;;25.40;10.27;;;;;;;2.64;71.95;101798.56;5045580;28;20024;-82
2022/04/11 05:52:24;;;;;;;15.10;9.90;;;;;;;2.71;71.50;101795.28;5028588;28;20047;-82
2022/04/11 05:54:50;;;;;;;14.68;9.68;;;;;;;2.80;71.31;101787.66;5013483;28;20476;-82
2022/04/11 05:57:16;;;;;;;16.95;9.63;;;;;;;2.88;70.59;101791.34;5013238;28;20401;-82
2022/04/11 05:59:42;;;;;;;19.10;9.98;;;;;;;2.97;71.54;101798.56;5046343;28;21337;-82
2022/04/11 06:02:11;;;;;;;13.35;9.20;;;;;;;3.06;70.89;101798.75;5029642;28;20049;-82
2022/04/11 06:04:38;;;;;;;21.40;9.52;;;;;;;3.16;70.71;101794.63;5042497;28;20094;-82
2022/04/11 06:07:05;;;;;;;13.88;9.75;;;;;;;3.25;69.82;101800.09;5044715;28;20369;-82
2022/04/11 06:09:31;;;;;;;14.15;8.73;;;;;;;3.36;69.27;101793.38;5029588;28;20120;-82
2022/04/11 06:11:58;;;;;;;16.70;9.25;;;;;;;3.47;69.60;101796.22;5045186;28;20127;-82
2022/04/11 06:14:24;;;;;;;17.60;8.75;;;;;;;3.56;69.53;101793.84;5029192;28;20140;-82
2022/04/11 06:16:50;;;;;;;12.70;8.55;;;;;;;3.69;68.89;101789.75;5045948;28;20162;-82
2022/04/11 06:19:17;;;;;;;24.88;8.95;;;;;;;3.79;68.91;101798.69;5045979;28;20025;-82
2022/04/11 06:21:43;;;;;;;24.58;8.50;;;;;;;3.89;68.55;101790.16;5045868;28;20338;-80
2022/04/11 06:24:09;;;;;;;12.73;7.95;;;;;;;3.99;67.95;101797.34;5029349;28;20588;-80
2022/04/11 06:26:34;;;;;;;15.38;8.60;;;;;;;4.12;67.52;101794.97;5047717;28;20076;-79
2022/04/11 06:29:00;;;;;;;18.20;7.40;;;;;;;4.21;66.60;101796.03;5045776;28;20086;-80
2022/04/11 06:31:26;;;;;;;15.18;7.88;;;;;;;4.31;66.69;101799.72;5029808;28;20087;-79
2022/04/11 06:33:58;;;;;;;;;;;;;;;4.41;66.46;101798.16;5030515;28;20120;-80
2022/04/11 06:36:25;;;;;;;10.98;7.30;;;;;;;4.54;65.78;101792.28;5012735;28;19974;-79
2022/04/11 06:38:51;;;;;;;24.98;8.93;;;;;;;4.65;66.26;101792.47;5029205;28;20064;-79
2022/04/11 06:41:19;;;;;;;17.83;8.15;;;;;;;4.78;66.44;101788.34;5046389;28;20037;-79
2022/04/11 06:43:44;;;;;;;14.05;7.35;;;;;;;4.89;65.62;101792.00;5045393;28;20106;-80
2022/04/11 06:46:19;;;;;;;11.70;7.65;;;;;;;4.99;65.23;101793.91;5030530;28;20037;-80
2022/04/11 06:48:45;;;;;;;12.23;7.35;;;;;;;5.07;64.87;101792.31;5045414;28;20070;-79
2022/04/11 06:51:10;;;;;;;16.73;7.90;;;;;;;5.17;64.92;101788.97;5028903;28;20372;-80
2022/04/11 06:53:36;;;;;;;12.25;7.88;;;;;;;5.28;64.06;101797.00;5028876;28;20037;-80
2022/04/11 06:56:01;;;;;;;10.93;7.22;;;;;;;5.38;64.03;101795.41;5040731;28;20052;-80
2022/04/11 06:58:27;;;;;;;10.60;7.07;;;;;;;5.50;64.17;101797.34;5028846;28;20041;-80
2022/04/11 07:00:52;;;;;;;17.20;7.53;;;;;;;5.60;64.15;101796.59;5027705;28;20136;-80
2022/04/11 07:03:18;;;;;;;14.63;7.30;;;;;;;5.71;63.19;101795.03;5028409;28;20033;-80
2022/04/11 07:05:43;;;;;;;14.50;7.00;;;;;;;5.82;62.57;101798.66;5027205;28;20423;-80
2022/04/11 07:08:09;;;;;;;8.45;5.72;;;;;;;5.91;62.81;101802.25;5045099;28;20086;-80
2022/04/11 07:10:37;;;;;;;7.82;6.43;;;;;;;6.05;62.76;101805.09;5044667;28;20061;-84
2022/04/11 07:13:03;;;;;;;10.68;6.50;;;;;;;6.14;62.63;101800.84;5045736;28;20056;-83
2022/04/11 07:15:28;;;;;;;11.90;6.45;;;;;;;6.25;62.24;101801.81;5047433;28;20025;-83
2022/04/11 07:17:54;;;;;;;12.60;7.00;;;;;;;6.33;61.97;101786.16;5046954;28;20064;-83
2022/04/11 07:20:19;;;;;;;8.73;6.70;;;;;;;6.45;61.84;101786.28;5045335;28;20033;-83
2022/04/11 07:22:45;;;;;;;13.93;7.05;;;;;;;6.55;61.89;101786.34;5046729;28;20110;-83
2022/04/11 07:25:10;;;;;;;13.38;6.93;;;;;;;6.65;60.95;101780.31;5045476;28;20040;-83
2022/04/11 07:27:36;;;;;;;23.42;7.53;;;;;;;6.75;61.32;101778.63;5028955;28;20036;-83
2022/04/11 07:30:03;;;;;;;18.10;7.57;;;;;;;6.85;61.14;101773.50;5043197;28;20029;-83
2022/04/11 07:32:29;;;;;;;8.95;6.40;;;;;;;6.98;60.81;101777.09;5043803;28;20111;-83
2022/04/11 07:35:00;;;;;;;14.75;6.82;;;;;;;7.11;60.67;101770.16;5044814;28;20116;-83
2022/04/11 07:37:28;;;;;;;16.67;7.82;;;;;;;7.23;61.17;101767.63;5029028;28;20127;-83
2022/04/11 07:39:54;;;;;;;14.07;7.10;;;;;;;7.38;61.05;101763.31;5043550;28;20068;-83
2022/04/11 07:42:20;;;;;;;11.13;6.82;;;;;;;7.51;60.29;101768.66;5028670;28;20469;-83
2022/04/11 07:44:46;;;;;;;12.95;6.22;;;;;;;7.67;59.36;101764.38;5044580;28;20095;-83
2022/04/11 07:47:11;;;;;;;9.60;7.07;;;;;;;7.81;59.50;101759.13;5047419;28;20068;-83
2022/04/11 07:49:37;;;;;;;14.65;6.72;;;;;;;7.92;59.93;101754.81;5012060;28;20123;-83
2022/04/11 07:52:03;;;;;;;12.40;6.53;;;;;;;8.07;58.62;101758.38;5045413;28;20029;-83
2022/04/11 07:54:28;;;;;;;11.02;5.93;;;;;;;8.18;57.79;101746.06;5044859;28;20033;-83
2022/04/11 07:56:53;;;;;;;18.75;6.32;;;;;;;8.29;58.11;101757.56;5044064;28;20044;-83
2022/04/11 07:59:19;;;;;;;13.80;5.88;;;;;;;8.40;57.83;101752.31;5045041;28;20056;-83
2022/04/11 08:01:44;;;;;;;13.80;6.13;;;;;;;8.50;57.47;101750.56;5045697;28;20029;-83
2022/04/11 08:04:10;;;;;;;12.00;6.03;;;;;;;8.64;56.90;101748.84;5028382;28;20021;-83
2022/04/11 08:06:35;;;;;;;21.73;6.45;;;;;;;8.78;57.23;101751.50;5027338;28;20064;-83
2022/04/11 08:09:01;;;;;;;12.07;7.18;;;;;;;8.90;56.82;101745.31;5048486;28;20041;-83
2022/04/11 08:11:27;;;;;;;10.35;6.32;;;;;;;9.05;56.83;101740.03;5031107;28;20048;-84
2022/04/11 08:13:53;;;;;;;18.05;5.88;;;;;;;9.20;55.55;101733.84;5015310;28;20108;-84
2022/04/11 08:16:18;;;;;;;11.45;5.43;;;;;;;9.31;55.21;101736.44;5048612;28;20112;-83
2022/04/11 08:18:43;;;;;;;19.20;6.05;;;;;;;9.38;55.23;101720.56;5048319;28;20068;-84
2022/04/11 08:21:09;;;;;;;13.93;5.65;;;;;;;9.53;55.83;101722.28;5051666;28;20033;-84
2022/04/11 08:23:34;;;;;;;12.75;5.53;;;;;;;9.66;55.12;101723.13;5047403;28;20682;-84
2022/04/11 08:26:00;;;;;;;9.95;5.07;;;;;;;9.73;54.04;101719.56;5032142;28;20052;-87
2022/04/11 08:28:26;;;;;;;12.25;5.95;;;;;;;9.81;53.84;101724.81;5032869;28;20040;-86
2022/04/11 08:30:51;;;;;;;8.50;5.43;;;;;;;9.92;53.39;101727.44;5029626;28;20060;-86
2022/04/11 08:33:17;;;;;;;11.75;4.90;;;;;;;10.01;52.65;101722.06;5035440;28;20052;-86
2022/04/11 08:35:42;;;;;;;14.40;5.20;;;;;;;10.07;52.63;101722.91;5035509;28;20353;-86
2022/04/11 08:38:08;;;;;;;18.00;5.82;;;;;;;10.18;52.37;101725.50;5053416;28;20045;-86
2022/04/11 08:40:35;;;;;;;9.63;5.32;;;;;;;10.27;51.89;101719.28;5053252;28;20055;-86
2022/04/11 08:43:02;;;;;;;14.75;5.88;;;;;;;10.41;52.32;101713.91;5051680;28;20029;-87
2022/04/11 08:45:29;;;;;;;11.57;5.32;;;;;;;10.50;51.57;101704.13;5035277;28;20064;-86
2022/04/11 08:47:56;;;;;;;12.18;5.00;;;;;;;10.63;51.35;101710.22;5051805;28;20378;-86
2022/04/11 08:50:23;;;;;;;11.65;5.00;;;;;;;10.79;50.81;101708.31;5019150;28;20029;-86
2022/04/11 08:52:53;;;;;;;6.05;4.55;;;;;;;10.93;51.85;101706.41;5035312;28;20074;-87
2022/04/11 08:55:20;;;;;;;10.55;5.07;;;;;;;11.08;50.14;101707.16;5035670;28;20342;-86
2022/04/11 08:57:45;;;;;;;12.15;4.53;;;;;;;11.22;49.89;101704.34;5035052;28;20048;-86
2022/04/11 09:00:21;;;;;;;8.90;4.88;;;;;;;11.30;51.00;101702.50;5051997;28;20319;-86
2022/04/11 09:02:47;;;;;;;11.77;4.60;;;;;;;11.37;48.40;101699.78;5035432;28;20040;-86
2022/04/11 09:05:22;;;;;;;9.18;4.50;;;;;;;11.47;49.17;101703.19;5048957;28;20307;-86
2022/04/11 09:07:53;;;;;;;14.20;4.40;;;;;;;11.58;48.27;101705.72;5044228;28;20119;-86
2022/04/11 09:10:24;;;;;;;10.70;4.90;;;;;;;11.68;48.36;101709.13;5035442;28;20483;-86
2022/04/11 09:12:53;;;;;;;12.15;4.40;;;;;;;11.74;48.94;101701.09;5032005;28;20551;-86
2022/04/11 09:15:19;;;;;;;9.80;4.22;;;;;;;11.84;47.77;101706.28;5015244;28;20045;-86
2022/04/11 09:17:46;;;;;;;11.48;4.85;;;;;;;11.99;48.09;101693.69;4998406;28;20379;-86
2022/04/11 09:20:30;;;;;;;7.13;3.80;;;;;;;12.09;46.27;101692.69;5032766;28;20049;-86
2022/04/11 09:22:57;;;;;;;9.75;4.18;;;;;;;12.21;46.02;101688.97;5033693;28;20038;-86
2022/04/11 09:25:31;;;;;;;10.30;4.32;;;;;;;12.35;46.69;101688.75;5052764;28;20029;-85
2022/04/11 09:28:09;;;;;;;8.70;4.35;;;;;;;12.39;46.22;101693.13;5034250;28;20052;-86
2022/04/11 09:30:35;;;;;;;7.80;3.90;;;;;;;12.47;44.83;101676.16;5040187;28;20429;-85
2022/04/11 09:33:04;;;;;;;8.80;3.85;;;;;;;12.57;45.73;101674.22;5031098;28;20112;-85
2022/04/11 09:35:34;;;;;;;6.88;3.83;;;;;;;12.73;45.74;101674.81;5032673;28;20040;-86
2022/04/11 09:38:10;;;;;;;11.38;4.25;;;;;;;12.89;45.21;101673.66;5014345;28;20116;-85
2022/04/11 09:40:37;;;;;;;11.43;3.72;;;;;;;13.03;44.20;101673.41;5031256;28;20038;-85
2022/04/11 09:43:02;;;;;;;12.55;4.50;;;;;;;13.13;44.27;101663.47;5030595;28;20481;-85
2022/04/11 09:45:28;;;;;;;8.63;4.00;;;;;;;13.23;44.28;101664.16;5032126;28;20092;-85
2022/04/11 09:48:04;;;;;;;9.90;4.00;;;;;;;13.28;43.57;101657.88;5014541;28;20124;-85
2022/04/11 09:50:33;;;;;;;7.68;3.83;;;;;;;13.32;41.61;101656.91;5031562;28;20029;-83
2022/04/11 09:53:11;;;;;;;6.75;3.03;;;;;;;13.28;42.28;101662.34;5030791;28;20041;-84
2022/04/11 09:55:38;;;;;;;8.85;3.30;;;;;;;13.25;39.57;101655.25;5030850;28;20072;-84
2022/04/11 09:58:04;;;;;;;8.77;3.30;;;;;;;13.31;39.85;101647.19;5030574;28;20046;-84
2022/04/11 10:00:34;;;;;;;8.80;3.80;;;;;;;13.40;39.83;101646.13;5030522;28;20373;-85
2022/04/11 10:03:01;;;;;;;11.73;3.97;;;;;;;13.47;39.41;101642.41;5030398;28;20155;-84
2022/04/11 10:05:26;;;;;;;10.27;3.80;;;;;;;13.52;40.14;101637.84;5018027;28;20037;-85
2022/04/11 10:07:54;;;;;;;8.07;3.72;;;;;;;13.62;40.30;101645.66;5025857;28;20113;-85
2022/04/11 10:10:21;;;;;;;6.93;3.65;;;;;;;13.67;39.67;101639.31;5034161;28;20052;-85
2022/04/11 10:12:47;;;;;;;8.70;3.83;;;;;;;13.72;40.00;101640.13;5030601;28;20038;-84
2022/04/11 10:15:13;;;;;;;12.23;3.83;;;;;;;13.77;40.48;101632.91;5030632;28;20040;-85
2022/04/11 10:17:38;;;;;;;8.60;3.92;;;;;;;13.89;40.26;101637.03;5013554;28;20037;-85
2022/04/11 10:20:05;;;;;;;7.07;3.55;;;;;;;14.02;39.02;101627.00;5030591;28;20157;-84
2022/04/11 10:22:38;;;;;;;6.63;3.35;;;;;;;14.17;39.37;101626.63;5013697;28;20041;-86
2022/04/11 10:25:06;;;;;;;7.43;3.42;;;;;;;14.28;37.36;101630.81;5030327;28;20041;-85
2022/04/11 10:27:34;;;;;;;10.68;3.90;;;;;;;14.35;36.98;101635.09;5030162;28;20029;-85
2022/04/11 10:30:02;;;;;;;9.15;3.60;;;;;;;14.43;37.07;101619.78;5013182;28;20060;-85
2022/04/11 10:32:30;;;;;;;7.10;3.35;;;;;;;14.56;37.80;101620.38;4997532;28;20052;-83
2022/04/11 10:35:03;;;;;;;10.65;3.97;;;;;;;14.66;37.85;101631.66;5013469;28;20037;-85
2022/04/11 10:37:48;;;;;;;11.52;3.78;;;;;;;14.68;38.81;101622.72;5031288;28;20037;-85
2022/04/11 10:40:17;;;;;;;6.05;3.22;;;;;;;14.65;37.78;101622.78;5013445;28;20037;-86
2022/04/11 10:43:11;;;;;;;12.27;3.53;;;;;;;14.67;37.59;101617.44;5031156;28;20041;-85
2022/04/11 10:45:56;;;;;;;7.70;3.63;;;;;;;14.78;37.29;101613.53;5030028;28;20057;-85
2022/04/11 10:48:58;;;;;;;7.15;3.28;;;;;;;14.88;37.21;101614.16;5029838;28;20044;-86
2022/04/11 10:51:23;;;;;;;7.35;3.33;;;;;;;14.98;36.16;101622.78;5030185;28;20108;-85
2022/04/11 10:54:16;;;;;;;9.57;3.47;;;;;;;15.10;36.46;101605.56;5013497;28;20455;-85
2022/04/11 10:56:55;;;;;;;10.07;3.60;;;;;;;15.14;35.49;101599.25;5013520;28;20033;-85
2022/04/11 10:59:28;;;;;;;8.73;3.30;;;;;;;15.18;37.27;101595.56;5029842;28;20397;-85
2022/04/11 11:01:58;;;;;;;5.90;3.20;;;;;;;15.22;35.38;101583.88;5031354;28;20033;-86
2022/04/11 11:04:27;;;;;;;6.82;3.08;;;;;;;15.23;36.78;101582.94;5012568;28;20359;-85
2022/04/11 11:07:21;;;;;;;7.63;3.05;;;;;;;15.37;35.29;101582.56;5029894;28;20073;-85
2022/04/11 11:09:54;;;;;;;7.22;3.50;;;;;;;15.42;35.18;101581.47;5029796;28;20044;-86
2022/04/11 11:12:20;;;;;;;10.27;3.65;;;;;;;15.45;35.00;101576.06;5025612;28;20384;-85
2022/04/11 11:14:45;;;;;;;13.70;3.50;;;;;;;15.48;36.67;101570.63;5031077;28;20038;-85
2022/04/11 11:17:11;;;;;;;12.10;3.40;;;;;;;15.64;36.35;101557.66;5013205;28;20535;-86
2022/04/11 11:20:07;;;;;;;11.20;3.63;;;;;;;15.68;36.80;101555.78;5046007;28;20037;-85
2022/04/11 11:22:52;;;;;;;9.57;3.85;;;;;;;15.74;36.45;101550.28;5029762;28;20056;-84
2022/04/11 11:25:19;;;;;;;6.15;3.15;;;;;;;15.98;36.01;101547.75;5013492;28;20037;-85
2022/04/11 11:27:45;;;;;;;11.07;3.80;;;;;;;16.07;33.91;101542.97;5029054;28;20080;-85